createdAt,value
2018-07-11T00:04:42.337Z,17.10
2018-07-11T00:09:16.954Z,17.00
2018-07-11T00:13:51.753Z,16.90
2018-07-11T00:23:00.362Z,16.60
2018-07-11T00:27:34.910Z,16.60
2018-07-11T00:32:09.645Z,16.50
2018-07-11T00:36:44.026Z,16.40
2018-07-11T00:41:18.369Z,16.30
2018-07-11T00:45:53.729Z,16.20
2018-07-11T00:50:28.066Z,16.20
2018-07-11T00:55:02.755Z,16.20
2018-07-11T00:59:38.914Z,16.30
2018-07-11T01:04:14.249Z,16.20
2018-07-11T01:08:51.237Z,16.20
2018-07-11T01:13:25.931Z,16.10
2018-07-11T01:18:05.735Z,16.00
2018-07-11T01:22:40.021Z,15.90
2018-07-11T01:27:14.514Z,15.90
2018-07-11T01:31:48.992Z,15.80
2018-07-11T01:36:23.972Z,15.70
2018-07-11T01:40:58.485Z,15.60
2018-07-11T01:45:32.774Z,15.50
2018-07-11T01:50:07.153Z,15.40
2018-07-11T01:54:41.747Z,15.30
2018-07-11T01:59:16.310Z,15.30
2018-07-11T02:03:50.821Z,15.20
2018-07-11T02:08:26.653Z,15.00
2018-07-11T02:13:01.257Z,14.80
2018-07-11T02:17:37.757Z,14.60
2018-07-11T02:22:13.113Z,14.50
2018-07-11T02:26:47.501Z,14.30
2018-07-11T02:31:22.169Z,14.30
2018-07-11T02:35:56.680Z,14.30
2018-07-11T02:40:31.118Z,14.30
2018-07-11T02:45:05.792Z,14.20
2018-07-11T02:49:40.543Z,14.20
2018-07-11T02:54:14.963Z,14.10
2018-07-11T02:58:49.778Z,14.10
2018-07-11T03:03:24.154Z,14.10
2018-07-11T03:07:58.393Z,14.10
2018-07-11T03:12:33.313Z,14.20
2018-07-11T03:17:07.806Z,14.20
2018-07-11T03:21:42.506Z,14.20
2018-07-11T03:26:16.786Z,14.20
2018-07-11T03:35:25.170Z,14.10
2018-07-11T03:39:59.741Z,14.00
2018-07-11T03:44:34.374Z,13.90
2018-07-11T03:49:09.028Z,13.90
2018-07-11T03:53:43.595Z,13.80
2018-07-11T03:58:18.054Z,13.90
2018-07-11T04:02:52.637Z,13.80
2018-07-11T04:07:27.414Z,13.80
2018-07-11T04:12:02.745Z,13.80
2018-07-11T04:16:37.014Z,13.80
2018-07-11T04:25:45.737Z,13.90
2018-07-11T04:30:20.105Z,13.90
2018-07-11T04:34:54.811Z,14.00
2018-07-11T04:39:29.257Z,14.10
2018-07-11T04:44:06.266Z,14.20
2018-07-11T04:48:40.978Z,14.30
2018-07-11T04:53:20.886Z,14.40
2018-07-11T04:57:55.617Z,14.50
2018-07-11T05:02:30.135Z,14.60
2018-07-11T05:07:05.777Z,14.80
2018-07-11T05:11:40.205Z,14.90
2018-07-11T05:16:14.637Z,15.10
2018-07-11T05:20:48.871Z,15.30
2018-07-11T05:25:23.631Z,15.50
2018-07-11T05:29:58.184Z,15.70
2018-07-11T05:34:32.424Z,15.90
2018-07-11T05:39:06.817Z,16.00
2018-07-11T05:43:41.138Z,16.20
2018-07-11T05:48:15.504Z,16.40
2018-07-11T05:52:50.001Z,16.50
2018-07-11T05:57:24.409Z,16.60
2018-07-11T06:06:33.741Z,16.90
2018-07-11T06:11:20.649Z,17.10
2018-07-11T06:15:55.022Z,17.20
2018-07-11T06:20:29.333Z,17.30
2018-07-11T06:25:04.053Z,17.30
2018-07-11T06:29:38.422Z,17.30
2018-07-11T06:34:13.254Z,17.40
2018-07-11T06:38:47.578Z,17.50
2018-07-11T06:43:23.054Z,17.50
2018-07-11T06:47:57.508Z,17.50
2018-07-11T06:57:06.860Z,17.70
2018-07-11T07:01:41.149Z,17.90
2018-07-11T07:06:15.537Z,18.10
2018-07-11T07:10:50.577Z,18.00
2018-07-11T07:15:24.961Z,18.10
2018-07-11T07:19:59.433Z,18.30
2018-07-11T07:24:33.904Z,18.50
2018-07-11T07:29:08.156Z,18.90
2018-07-11T07:33:42.464Z,18.80
2018-07-11T07:38:17.022Z,18.60
2018-07-11T07:42:51.810Z,18.50
2018-07-11T07:47:31.341Z,18.80
2018-07-11T07:52:05.766Z,18.90
2018-07-11T07:56:40.126Z,18.60
2018-07-11T08:01:14.702Z,18.60
2018-07-11T08:05:49.376Z,18.90
2018-07-11T08:10:23.935Z,18.90
2018-07-11T08:14:58.667Z,18.80
2018-07-11T08:19:33.289Z,19.00
2018-07-11T08:24:18.869Z,20.10
2018-07-11T08:32:18.266Z,20.90
2018-07-11T08:37:00.797Z,21.00
2018-07-11T08:41:45.724Z,20.90
2018-07-11T08:47:03.578Z,20.60
2018-07-11T08:51:48.222Z,20.30
2018-07-11T08:56:36.325Z,20.20
2018-07-11T09:01:55.597Z,20.50
2018-07-11T09:07:37.902Z,21.10
2018-07-11T09:12:22.065Z,22.20
2018-07-11T09:17:17.897Z,22.80
2018-07-11T09:22:08.432Z,22.70
2018-07-11T09:26:42.833Z,22.60
2018-07-11T09:31:17.231Z,24.50
2018-07-11T09:35:51.601Z,25.70
2018-07-11T09:40:26.087Z,24.80
2018-07-11T09:45:00.324Z,23.70
2018-07-11T09:49:35.937Z,23.30
2018-07-11T09:54:10.537Z,23.10
2018-07-11T09:58:44.901Z,22.70
2018-07-11T10:03:19.441Z,22.40
2018-07-11T10:07:53.911Z,22.00
2018-07-11T10:12:28.434Z,21.70
2018-07-11T10:17:03.061Z,21.60
2018-07-11T10:21:37.462Z,21.60
2018-07-11T10:26:12.049Z,21.80
2018-07-11T10:30:47.433Z,22.30
2018-07-11T10:35:22.152Z,24.20
2018-07-11T10:39:57.725Z,26.80
2018-07-11T10:44:32.098Z,26.80
2018-07-11T10:49:06.362Z,25.70
2018-07-11T10:53:40.793Z,24.30
2018-07-11T10:58:15.214Z,23.10
2018-07-11T11:02:49.775Z,22.30
2018-07-11T11:11:58.092Z,21.30
2018-07-11T11:16:32.757Z,21.00
2018-07-11T11:21:07.652Z,21.10
2018-07-11T11:25:42.145Z,21.30
2018-07-11T11:30:16.414Z,21.60
2018-07-11T11:34:51.909Z,22.30
2018-07-11T11:39:26.776Z,22.90
2018-07-11T11:44:02.727Z,23.30
2018-07-11T11:48:37.409Z,23.40
2018-07-11T11:53:12.761Z,23.40
2018-07-11T11:57:47.608Z,23.60
2018-07-11T12:02:22.650Z,24.10
2018-07-11T12:06:57.204Z,24.40
2018-07-11T12:11:32.351Z,24.10
2018-07-11T12:16:07.491Z,24.10
2018-07-11T12:20:42.705Z,24.20
2018-07-11T12:25:17.481Z,24.00
2018-07-11T12:29:52.856Z,23.80
2018-07-11T12:34:27.373Z,24.20
2018-07-11T12:39:01.676Z,26.50
2018-07-11T12:43:36.298Z,28.20
2018-07-11T12:48:15.961Z,28.20
2018-07-11T12:52:50.661Z,27.50
2018-07-11T12:57:26.393Z,27.10
2018-07-11T13:02:01.233Z,27.40
2018-07-11T13:06:36.881Z,27.60
2018-07-11T13:11:11.770Z,28.00
2018-07-11T13:15:46.329Z,27.40
2018-07-11T13:20:20.873Z,26.80
2018-07-11T13:24:55.489Z,27.20
2018-07-11T13:29:30.022Z,28.40
2018-07-11T13:34:04.761Z,29.10
2018-07-11T13:38:39.867Z,28.40
2018-07-11T13:43:14.365Z,27.90
2018-07-11T13:47:52.825Z,27.20
2018-07-11T13:52:27.221Z,26.50
2018-07-11T13:57:01.707Z,26.60
2018-07-11T14:01:36.664Z,26.00
2018-07-11T14:06:11.229Z,25.50
2018-07-11T14:10:45.799Z,25.40
2018-07-11T14:15:20.518Z,25.30
2018-07-11T14:19:55.262Z,25.30
2018-07-11T14:24:30.825Z,25.20
2018-07-11T14:29:05.353Z,25.30
2018-07-11T14:33:39.909Z,25.40
2018-07-11T14:38:14.716Z,25.10
2018-07-11T14:42:49.140Z,25.10
2018-07-11T14:47:58.215Z,25.20
2018-07-11T14:52:35.091Z,25.10
2018-07-11T14:57:09.929Z,25.20
2018-07-11T15:01:44.509Z,25.30
2018-07-11T15:06:18.961Z,25.30
2018-07-11T15:10:53.522Z,25.30
2018-07-11T15:15:28.678Z,25.10
2018-07-11T15:20:03.446Z,24.90
2018-07-11T15:24:37.949Z,24.60
2018-07-11T15:29:12.452Z,24.30
2018-07-11T15:33:47.256Z,24.10
2018-07-11T15:38:23.900Z,23.80
2018-07-11T15:42:58.809Z,23.70
2018-07-11T15:47:35.721Z,23.60
2018-07-11T15:52:10.754Z,23.50
2018-07-11T15:56:45.376Z,23.40
2018-07-11T16:01:19.936Z,23.10
2018-07-11T16:05:56.429Z,23.10
2018-07-11T16:10:43.481Z,23.00
2018-07-11T16:15:18.061Z,22.80
2018-07-11T16:19:52.797Z,22.70
2018-07-11T16:24:27.360Z,22.80
2018-07-11T16:29:02.106Z,23.00
2018-07-11T16:33:36.650Z,23.30
2018-07-11T16:38:17.263Z,23.50
2018-07-11T16:42:53.784Z,23.80
2018-07-11T16:47:29.907Z,23.90
2018-07-11T16:52:06.105Z,23.70
2018-07-11T16:56:40.976Z,23.40
2018-07-11T17:01:15.980Z,23.30
2018-07-11T17:05:57.449Z,23.30
2018-07-11T17:15:06.480Z,23.20
2018-07-11T17:19:54.776Z,23.10
2018-07-11T17:24:29.914Z,23.10
2018-07-11T17:29:04.956Z,23.10
2018-07-11T17:33:39.556Z,23.00
2018-07-11T17:38:14.107Z,22.90
2018-07-11T17:42:48.590Z,22.70
2018-07-11T17:47:24.940Z,22.50
2018-07-11T17:52:11.173Z,22.40
2018-07-11T17:56:56.518Z,22.40
2018-07-11T18:01:40.579Z,22.40
2018-07-11T18:07:26.024Z,22.30
2018-07-11T18:12:11.773Z,22.20
2018-07-11T18:16:54.574Z,22.20
2018-07-11T18:21:46.629Z,22.10
2018-07-11T18:26:51.270Z,22.00
2018-07-11T18:31:36.200Z,21.90
2018-07-11T18:38:26.813Z,21.80
2018-07-11T18:43:41.764Z,21.70
2018-07-11T18:49:29.353Z,21.50
2018-07-11T18:54:13.226Z,21.40
2018-07-11T18:58:53.820Z,21.20
2018-07-11T19:03:35.529Z,20.90
2018-07-11T19:08:25.963Z,20.70
2018-07-11T19:13:00.986Z,20.40
2018-07-11T19:18:41.430Z,20.20
2018-07-11T19:23:34.369Z,19.90
2018-07-11T19:28:26.229Z,19.60
2018-07-11T19:33:06.880Z,19.40
2018-07-11T19:38:52.201Z,19.10
2018-07-11T19:43:48.608Z,18.80
2018-07-11T19:49:36.211Z,18.50
2018-07-11T19:54:17.645Z,18.30
2018-07-11T19:58:52.154Z,18.10
2018-07-11T20:03:29.051Z,17.90
2018-07-11T20:08:03.998Z,17.70
2018-07-11T20:12:38.505Z,17.50
2018-07-11T20:17:13.023Z,17.40
2018-07-11T20:21:48.175Z,17.30
2018-07-11T20:26:24.014Z,17.00
2018-07-11T20:30:59.913Z,16.90
2018-07-11T20:35:34.687Z,16.80
2018-07-11T20:40:09.481Z,16.60
2018-07-11T20:44:44.013Z,16.40
2018-07-11T20:49:23.903Z,16.30
2018-07-11T20:53:58.301Z,16.30
2018-07-11T20:58:44.084Z,16.20
2018-07-11T21:04:34.709Z,16.10
2018-07-11T21:09:20.078Z,16.00
2018-07-11T21:14:15.495Z,15.90
2018-07-11T21:28:03.428Z,16.00
2018-07-11T21:32:37.897Z,16.10
2018-07-11T21:37:12.400Z,16.10
2018-07-11T21:41:46.629Z,16.20
2018-07-11T21:46:21.365Z,16.20
2018-07-11T21:50:56.153Z,16.20
2018-07-11T21:55:31.520Z,16.20
2018-07-11T22:00:05.916Z,16.30
2018-07-11T22:04:40.262Z,16.30
2018-07-11T22:09:15.050Z,16.30
2018-07-11T22:13:49.729Z,16.40
2018-07-11T22:18:39.749Z,16.40
2018-07-11T22:23:12.785Z,16.30
2018-07-11T22:27:46.387Z,16.10
2018-07-11T22:32:19.436Z,16.10
2018-07-11T22:36:52.569Z,16.00
2018-07-11T22:41:25.653Z,15.90
2018-07-11T22:45:58.705Z,15.80
2018-07-11T22:50:31.885Z,15.70
2018-07-11T22:55:04.933Z,15.60
2018-07-11T22:59:37.960Z,15.50
2018-07-11T23:04:11.101Z,15.50
2018-07-11T23:08:44.133Z,15.50
2018-07-11T23:13:17.309Z,15.50
2018-07-11T23:17:50.389Z,15.50
2018-07-11T23:22:23.534Z,15.50
2018-07-11T23:26:57.250Z,15.40
2018-07-11T23:31:30.370Z,15.40
2018-07-11T23:36:03.586Z,15.50
2018-07-11T23:40:36.601Z,15.60
2018-07-11T23:45:09.754Z,15.60
2018-07-11T23:49:42.845Z,15.60
2018-07-11T23:54:15.973Z,15.70
2018-07-11T23:58:49.065Z,15.80
